sensor_id;sensor_type;location;lat;lon;timestamp;P1;durP1;ratioP1;P2;durP2;ratioP2
5811;SDS011;2932;52.400;9.558;2023-11-19T00:01:31;0.50;;;0.50;;
5811;SDS011;2932;52.400;9.558;2023-11-19T00:03:57;0.40;;;0.40;;
5811;SDS011;2932;52.400;9.558;2023-11-19T00:06:23;0.73;;;0.50;;
5811;SDS011;2932;52.400;9.558;2023-11-19T00:08:48;0.67;;;0.67;;
5811;SDS011;2932;52.400;9.558;2023-11-19T00:11:13;0.77;;;0.50;;
5811;SDS011;2932;52.400;9.558;2023-11-19T00:13:40;0.87;;;0.70;;
5811;SDS011;2932;52.400;9.558;2023-11-19T00:16:06;1.43;;;0.80;;
5811;SDS011;2932;52.400;9.558;2023-11-19T00:18:32;1.27;;;0.80;;
5811;SDS011;2932;52.400;9.558;2023-11-19T00:20:58;0.50;;;0.50;;
5811;SDS011;2932;52.400;9.558;2023-11-19T00:23:23;0.50;;;0.50;;
5811;SDS011;2932;52.400;9.558;2023-11-19T00:25:48;0.60;;;0.60;;
5811;SDS011;2932;52.400;9.558;2023-11-19T00:28:14;1.87;;;0.60;;
5811;SDS011;2932;52.400;9.558;2023-11-19T00:30:39;0.67;;;0.67;;
5811;SDS011;2932;52.400;9.558;2023-11-19T00:33:06;0.60;;;0.60;;
5811;SDS011;2932;52.400;9.558;2023-11-19T00:35:31;0.67;;;0.60;;
5811;SDS011;2932;52.400;9.558;2023-11-19T00:37:57;0.40;;;0.40;;
5811;SDS011;2932;52.400;9.558;2023-11-19T00:40:23;0.60;;;0.60;;
5811;SDS011;2932;52.400;9.558;2023-11-19T00:42:48;0.50;;;0.50;;
5811;SDS011;2932;52.400;9.558;2023-11-19T00:45:14;0.57;;;0.57;;
5811;SDS011;2932;52.400;9.558;2023-11-19T00:47:40;1.67;;;0.40;;
5811;SDS011;2932;52.400;9.558;2023-11-19T00:50:05;0.90;;;0.50;;
5811;SDS011;2932;52.400;9.558;2023-11-19T00:52:34;0.30;;;0.30;;
5811;SDS011;2932;52.400;9.558;2023-11-19T00:54:59;0.40;;;0.40;;
5811;SDS011;2932;52.400;9.558;2023-11-19T00:57:25;0.40;;;0.40;;
5811;SDS011;2932;52.400;9.558;2023-11-19T00:59:51;0.40;;;0.40;;
5811;SDS011;2932;52.400;9.558;2023-11-19T01:02:17;0.50;;;0.50;;
5811;SDS011;2932;52.400;9.558;2023-11-19T01:04:42;0.60;;;0.50;;
5811;SDS011;2932;52.400;9.558;2023-11-19T01:07:08;0.50;;;0.50;;
5811;SDS011;2932;52.400;9.558;2023-11-19T01:09:37;0.40;;;0.40;;
5811;SDS011;2932;52.400;9.558;2023-11-19T01:12:03;0.50;;;0.50;;
5811;SDS011;2932;52.400;9.558;2023-11-19T01:14:28;0.67;;;0.60;;
5811;SDS011;2932;52.400;9.558;2023-11-19T01:16:54;0.40;;;0.40;;
5811;SDS011;2932;52.400;9.558;2023-11-19T01:19:21;0.63;;;0.50;;
5811;SDS011;2932;52.400;9.558;2023-11-19T01:21:47;0.50;;;0.50;;
5811;SDS011;2932;52.400;9.558;2023-11-19T01:24:16;0.60;;;0.60;;
5811;SDS011;2932;52.400;9.558;2023-11-19T01:26:41;0.47;;;0.30;;
5811;SDS011;2932;52.400;9.558;2023-11-19T01:29:14;0.40;;;0.40;;
5811;SDS011;2932;52.400;9.558;2023-11-19T01:31:43;0.30;;;0.30;;
5811;SDS011;2932;52.400;9.558;2023-11-19T01:34:10;0.50;;;0.50;;
5811;SDS011;2932;52.400;9.558;2023-11-19T01:36:36;1.13;;;0.37;;
5811;SDS011;2932;52.400;9.558;2023-11-19T01:39:02;0.40;;;0.40;;
5811;SDS011;2932;52.400;9.558;2023-11-19T01:41:29;0.30;;;0.30;;
5811;SDS011;2932;52.400;9.558;2023-11-19T01:43:54;0.40;;;0.40;;
5811;SDS011;2932;52.400;9.558;2023-11-19T01:46:19;1.20;;;0.50;;
5811;SDS011;2932;52.400;9.558;2023-11-19T01:48:45;1.43;;;0.40;;
5811;SDS011;2932;52.400;9.558;2023-11-19T01:51:12;0.40;;;0.40;;
5811;SDS011;2932;52.400;9.558;2023-11-19T01:53:37;0.37;;;0.37;;
5811;SDS011;2932;52.400;9.558;2023-11-19T01:56:05;1.63;;;0.40;;
5811;SDS011;2932;52.400;9.558;2023-11-19T01:58:38;0.40;;;0.40;;
5811;SDS011;2932;52.400;9.558;2023-11-19T02:01:05;0.40;;;0.40;;
5811;SDS011;2932;52.400;9.558;2023-11-19T02:03:32;0.30;;;0.30;;
5811;SDS011;2932;52.400;9.558;2023-11-19T02:05:58;0.83;;;0.40;;
5811;SDS011;2932;52.400;9.558;2023-11-19T02:08:24;1.93;;;0.40;;
5811;SDS011;2932;52.400;9.558;2023-11-19T02:10:49;0.30;;;0.30;;
5811;SDS011;2932;52.400;9.558;2023-11-19T02:13:15;0.53;;;0.37;;
5811;SDS011;2932;52.400;9.558;2023-11-19T02:15:41;0.30;;;0.30;;
5811;SDS011;2932;52.400;9.558;2023-11-19T02:18:20;0.40;;;0.30;;
5811;SDS011;2932;52.400;9.558;2023-11-19T02:20:52;0.30;;;0.30;;
5811;SDS011;2932;52.400;9.558;2023-11-19T02:23:19;0.63;;;0.30;;
5811;SDS011;2932;52.400;9.558;2023-11-19T02:26:09;0.30;;;0.30;;
5811;SDS011;2932;52.400;9.558;2023-11-19T02:28:39;0.20;;;0.20;;
5811;SDS011;2932;52.400;9.558;2023-11-19T02:31:05;0.33;;;0.23;;
5811;SDS011;2932;52.400;9.558;2023-11-19T02:33:34;0.33;;;0.20;;
5811;SDS011;2932;52.400;9.558;2023-11-19T02:36:00;0.70;;;0.30;;
5811;SDS011;2932;52.400;9.558;2023-11-19T02:38:26;0.30;;;0.30;;
5811;SDS011;2932;52.400;9.558;2023-11-19T02:40:51;1.27;;;0.27;;
5811;SDS011;2932;52.400;9.558;2023-11-19T02:43:17;0.40;;;0.40;;
5811;SDS011;2932;52.400;9.558;2023-11-19T02:45:42;0.30;;;0.30;;
5811;SDS011;2932;52.400;9.558;2023-11-19T02:48:10;1.13;;;0.37;;
5811;SDS011;2932;52.400;9.558;2023-11-19T02:50:36;0.50;;;0.30;;
5811;SDS011;2932;52.400;9.558;2023-11-19T02:53:01;0.30;;;0.30;;
5811;SDS011;2932;52.400;9.558;2023-11-19T02:55:27;0.30;;;0.30;;
5811;SDS011;2932;52.400;9.558;2023-11-19T02:57:55;1.60;;;0.57;;
5811;SDS011;2932;52.400;9.558;2023-11-19T03:00:24;0.40;;;0.40;;
5811;SDS011;2932;52.400;9.558;2023-11-19T03:02:50;0.60;;;0.60;;
5811;SDS011;2932;52.400;9.558;2023-11-19T03:05:30;0.90;;;0.60;;
5811;SDS011;2932;52.400;9.558;2023-11-19T03:07:56;1.47;;;0.90;;
5811;SDS011;2932;52.400;9.558;2023-11-19T03:10:22;1.13;;;0.90;;
5811;SDS011;2932;52.400;9.558;2023-11-19T03:12:47;0.97;;;0.97;;
5811;SDS011;2932;52.400;9.558;2023-11-19T03:15:12;1.07;;;0.70;;
5811;SDS011;2932;52.400;9.558;2023-11-19T03:17:38;1.00;;;1.00;;
5811;SDS011;2932;52.400;9.558;2023-11-19T03:20:07;1.20;;;1.03;;
5811;SDS011;2932;52.400;9.558;2023-11-19T03:22:41;2.80;;;1.17;;
5811;SDS011;2932;52.400;9.558;2023-11-19T03:25:07;1.83;;;1.10;;
5811;SDS011;2932;52.400;9.558;2023-11-19T03:27:37;1.00;;;1.00;;
5811;SDS011;2932;52.400;9.558;2023-11-19T03:30:04;1.10;;;1.03;;
5811;SDS011;2932;52.400;9.558;2023-11-19T03:32:31;1.13;;;0.97;;
5811;SDS011;2932;52.400;9.558;2023-11-19T03:34:57;0.90;;;0.90;;
5811;SDS011;2932;52.400;9.558;2023-11-19T03:37:22;1.27;;;1.17;;
5811;SDS011;2932;52.400;9.558;2023-11-19T03:39:48;1.30;;;0.97;;
5811;SDS011;2932;52.400;9.558;2023-11-19T03:42:14;1.43;;;1.03;;
5811;SDS011;2932;52.400;9.558;2023-11-19T03:44:39;0.90;;;0.90;;
5811;SDS011;2932;52.400;9.558;2023-11-19T03:47:05;1.23;;;1.00;;
5811;SDS011;2932;52.400;9.558;2023-11-19T03:49:31;1.90;;;1.53;;
5811;SDS011;2932;52.400;9.558;2023-11-19T03:51:56;1.07;;;0.97;;
5811;SDS011;2932;52.400;9.558;2023-11-19T03:54:21;3.17;;;1.20;;
5811;SDS011;2932;52.400;9.558;2023-11-19T03:56:48;2.17;;;1.50;;
5811;SDS011;2932;52.400;9.558;2023-11-19T03:59:13;2.40;;;1.50;;
5811;SDS011;2932;52.400;9.558;2023-11-19T04:01:40;3.60;;;1.67;;
5811;SDS011;2932;52.400;9.558;2023-11-19T04:04:05;2.03;;;1.60;;
5811;SDS011;2932;52.400;9.558;2023-11-19T04:06:31;1.77;;;1.50;;
5811;SDS011;2932;52.400;9.558;2023-11-19T04:08:56;2.27;;;1.77;;
5811;SDS011;2932;52.400;9.558;2023-11-19T04:11:22;2.10;;;1.83;;
5811;SDS011;2932;52.400;9.558;2023-11-19T04:13:47;4.63;;;2.60;;
5811;SDS011;2932;52.400;9.558;2023-11-19T04:16:12;2.53;;;2.33;;
5811;SDS011;2932;52.400;9.558;2023-11-19T04:18:39;5.67;;;2.90;;
5811;SDS011;2932;52.400;9.558;2023-11-19T04:21:08;3.53;;;3.23;;
5811;SDS011;2932;52.400;9.558;2023-11-19T04:23:33;4.07;;;3.37;;
5811;SDS011;2932;52.400;9.558;2023-11-19T04:26:01;5.67;;;3.83;;
5811;SDS011;2932;52.400;9.558;2023-11-19T04:28:27;6.40;;;3.87;;
5811;SDS011;2932;52.400;9.558;2023-11-19T04:30:52;4.33;;;3.90;;
5811;SDS011;2932;52.400;9.558;2023-11-19T04:33:18;5.50;;;4.10;;
5811;SDS011;2932;52.400;9.558;2023-11-19T04:35:43;8.30;;;4.53;;
5811;SDS011;2932;52.400;9.558;2023-11-19T04:38:08;6.67;;;4.07;;
5811;SDS011;2932;52.400;9.558;2023-11-19T04:40:33;8.77;;;4.37;;
5811;SDS011;2932;52.400;9.558;2023-11-19T04:42:59;6.77;;;4.40;;
5811;SDS011;2932;52.400;9.558;2023-11-19T04:45:24;6.27;;;4.70;;
5811;SDS011;2932;52.400;9.558;2023-11-19T04:47:49;9.80;;;5.23;;
5811;SDS011;2932;52.400;9.558;2023-11-19T04:50:15;8.13;;;5.03;;
5811;SDS011;2932;52.400;9.558;2023-11-19T04:52:40;6.87;;;5.20;;
5811;SDS011;2932;52.400;9.558;2023-11-19T04:55:07;13.63;;;6.50;;
5811;SDS011;2932;52.400;9.558;2023-11-19T04:57:32;9.00;;;6.27;;
5811;SDS011;2932;52.400;9.558;2023-11-19T04:59:58;11.00;;;7.23;;
5811;SDS011;2932;52.400;9.558;2023-11-19T05:02:23;9.07;;;6.53;;
5811;SDS011;2932;52.400;9.558;2023-11-19T05:04:49;10.60;;;6.67;;
5811;SDS011;2932;52.400;9.558;2023-11-19T05:07:14;9.47;;;6.40;;
5811;SDS011;2932;52.400;9.558;2023-11-19T05:09:40;12.53;;;6.43;;
5811;SDS011;2932;52.400;9.558;2023-11-19T05:12:05;9.57;;;6.20;;
5811;SDS011;2932;52.400;9.558;2023-11-19T05:14:33;12.07;;;6.20;;
5811;SDS011;2932;52.400;9.558;2023-11-19T05:16:59;11.17;;;6.43;;
5811;SDS011;2932;52.400;9.558;2023-11-19T05:19:24;9.20;;;6.20;;
5811;SDS011;2932;52.400;9.558;2023-11-19T05:21:49;10.87;;;5.67;;
5811;SDS011;2932;52.400;9.558;2023-11-19T05:24:17;11.50;;;5.57;;
5811;SDS011;2932;52.400;9.558;2023-11-19T05:26:42;11.87;;;5.53;;
5811;SDS011;2932;52.400;9.558;2023-11-19T05:29:08;13.90;;;5.27;;
5811;SDS011;2932;52.400;9.558;2023-11-19T05:31:33;13.43;;;5.10;;
5811;SDS011;2932;52.400;9.558;2023-11-19T05:33:59;9.60;;;4.70;;
5811;SDS011;2932;52.400;9.558;2023-11-19T05:36:24;11.37;;;4.60;;
5811;SDS011;2932;52.400;9.558;2023-11-19T05:38:49;7.27;;;4.90;;
5811;SDS011;2932;52.400;9.558;2023-11-19T05:41:15;12.03;;;4.57;;
5811;SDS011;2932;52.400;9.558;2023-11-19T05:43:40;12.67;;;4.67;;
5811;SDS011;2932;52.400;9.558;2023-11-19T05:46:06;7.17;;;4.73;;
5811;SDS011;2932;52.400;9.558;2023-11-19T05:48:31;9.03;;;4.90;;
5811;SDS011;2932;52.400;9.558;2023-11-19T05:50:57;9.17;;;4.30;;
5811;SDS011;2932;52.400;9.558;2023-11-19T05:53:22;8.23;;;4.50;;
5811;SDS011;2932;52.400;9.558;2023-11-19T05:55:48;11.13;;;5.03;;
5811;SDS011;2932;52.400;9.558;2023-11-19T05:58:25;7.33;;;4.00;;
5811;SDS011;2932;52.400;9.558;2023-11-19T06:00:54;7.63;;;4.43;;
5811;SDS011;2932;52.400;9.558;2023-11-19T06:03:20;10.00;;;4.20;;
5811;SDS011;2932;52.400;9.558;2023-11-19T06:05:46;12.60;;;5.07;;
5811;SDS011;2932;52.400;9.558;2023-11-19T06:08:13;9.33;;;4.53;;
5811;SDS011;2932;52.400;9.558;2023-11-19T06:10:40;11.97;;;4.50;;
5811;SDS011;2932;52.400;9.558;2023-11-19T06:13:05;14.07;;;4.97;;
5811;SDS011;2932;52.400;9.558;2023-11-19T06:15:31;12.73;;;4.83;;
5811;SDS011;2932;52.400;9.558;2023-11-19T06:17:58;10.47;;;4.70;;
5811;SDS011;2932;52.400;9.558;2023-11-19T06:20:25;14.37;;;4.47;;
5811;SDS011;2932;52.400;9.558;2023-11-19T06:22:52;13.70;;;4.17;;
5811;SDS011;2932;52.400;9.558;2023-11-19T06:25:18;11.73;;;4.80;;
5811;SDS011;2932;52.400;9.558;2023-11-19T06:27:43;14.73;;;4.70;;
5811;SDS011;2932;52.400;9.558;2023-11-19T06:30:09;11.87;;;4.47;;
5811;SDS011;2932;52.400;9.558;2023-11-19T06:32:34;13.73;;;4.10;;
5811;SDS011;2932;52.400;9.558;2023-11-19T06:35:00;11.53;;;4.07;;
5811;SDS011;2932;52.400;9.558;2023-11-19T06:37:25;11.53;;;4.03;;
5811;SDS011;2932;52.400;9.558;2023-11-19T06:39:52;13.00;;;3.60;;
5811;SDS011;2932;52.400;9.558;2023-11-19T06:42:17;10.07;;;3.57;;
5811;SDS011;2932;52.400;9.558;2023-11-19T06:44:43;11.67;;;3.90;;
5811;SDS011;2932;52.400;9.558;2023-11-19T06:47:08;12.33;;;3.73;;
5811;SDS011;2932;52.400;9.558;2023-11-19T06:49:33;12.63;;;3.70;;
5811;SDS011;2932;52.400;9.558;2023-11-19T06:51:59;13.70;;;3.70;;
5811;SDS011;2932;52.400;9.558;2023-11-19T06:54:24;9.40;;;3.50;;
5811;SDS011;2932;52.400;9.558;2023-11-19T06:56:50;12.00;;;3.43;;
5811;SDS011;2932;52.400;9.558;2023-11-19T06:59:15;11.57;;;4.00;;
5811;SDS011;2932;52.400;9.558;2023-11-19T07:01:40;10.13;;;3.30;;
5811;SDS011;2932;52.400;9.558;2023-11-19T07:04:10;12.60;;;3.80;;
5811;SDS011;2932;52.400;9.558;2023-11-19T07:06:36;13.40;;;3.87;;
5811;SDS011;2932;52.400;9.558;2023-11-19T07:09:02;14.37;;;3.27;;
5811;SDS011;2932;52.400;9.558;2023-11-19T07:11:46;14.17;;;3.30;;
5811;SDS011;2932;52.400;9.558;2023-11-19T07:14:11;10.07;;;3.10;;
5811;SDS011;2932;52.400;9.558;2023-11-19T07:16:37;8.13;;;2.93;;
5811;SDS011;2932;52.400;9.558;2023-11-19T07:19:04;11.63;;;3.30;;
5811;SDS011;2932;52.400;9.558;2023-11-19T07:21:30;11.87;;;3.10;;
5811;SDS011;2932;52.400;9.558;2023-11-19T07:23:56;10.67;;;3.03;;
5811;SDS011;2932;52.400;9.558;2023-11-19T07:26:21;12.57;;;3.17;;
5811;SDS011;2932;52.400;9.558;2023-11-19T07:28:47;15.07;;;3.63;;
5811;SDS011;2932;52.400;9.558;2023-11-19T07:31:13;13.83;;;3.10;;
5811;SDS011;2932;52.400;9.558;2023-11-19T07:33:41;17.77;;;3.27;;
5811;SDS011;2932;52.400;9.558;2023-11-19T07:36:08;14.53;;;2.90;;
5811;SDS011;2932;52.400;9.558;2023-11-19T07:38:34;14.87;;;2.70;;
5811;SDS011;2932;52.400;9.558;2023-11-19T07:40:59;17.13;;;4.13;;
5811;SDS011;2932;52.400;9.558;2023-11-19T07:43:24;15.13;;;2.87;;
5811;SDS011;2932;52.400;9.558;2023-11-19T07:45:50;14.70;;;3.13;;
5811;SDS011;2932;52.400;9.558;2023-11-19T07:48:15;18.67;;;3.57;;
5811;SDS011;2932;52.400;9.558;2023-11-19T07:50:40;18.73;;;3.13;;
5811;SDS011;2932;52.400;9.558;2023-11-19T07:53:06;20.50;;;3.00;;
5811;SDS011;2932;52.400;9.558;2023-11-19T07:55:32;14.37;;;2.97;;
5811;SDS011;2932;52.400;9.558;2023-11-19T07:57:58;11.43;;;2.77;;
5811;SDS011;2932;52.400;9.558;2023-11-19T08:00:23;18.10;;;3.20;;
5811;SDS011;2932;52.400;9.558;2023-11-19T08:02:49;14.97;;;3.00;;
5811;SDS011;2932;52.400;9.558;2023-11-19T08:05:14;18.30;;;3.37;;
5811;SDS011;2932;52.400;9.558;2023-11-19T08:07:39;16.90;;;2.80;;
5811;SDS011;2932;52.400;9.558;2023-11-19T08:10:05;15.87;;;3.13;;
5811;SDS011;2932;52.400;9.558;2023-11-19T08:12:34;15.23;;;3.23;;
5811;SDS011;2932;52.400;9.558;2023-11-19T08:15:01;14.40;;;2.87;;
5811;SDS011;2932;52.400;9.558;2023-11-19T08:17:27;14.97;;;2.77;;
5811;SDS011;2932;52.400;9.558;2023-11-19T08:19:52;22.97;;;3.53;;
5811;SDS011;2932;52.400;9.558;2023-11-19T08:22:17;16.57;;;3.10;;
5811;SDS011;2932;52.400;9.558;2023-11-19T08:24:43;16.50;;;3.37;;
5811;SDS011;2932;52.400;9.558;2023-11-19T08:27:08;16.77;;;3.10;;
5811;SDS011;2932;52.400;9.558;2023-11-19T08:29:33;12.93;;;3.50;;
5811;SDS011;2932;52.400;9.558;2023-11-19T08:32:00;21.17;;;4.10;;
5811;SDS011;2932;52.400;9.558;2023-11-19T08:34:27;24.23;;;3.80;;
5811;SDS011;2932;52.400;9.558;2023-11-19T08:36:52;15.37;;;3.37;;
5811;SDS011;2932;52.400;9.558;2023-11-19T08:39:20;16.57;;;3.60;;
5811;SDS011;2932;52.400;9.558;2023-11-19T08:41:46;19.03;;;3.57;;
5811;SDS011;2932;52.400;9.558;2023-11-19T08:44:15;21.97;;;4.00;;
5811;SDS011;2932;52.400;9.558;2023-11-19T08:46:49;14.40;;;2.80;;
5811;SDS011;2932;52.400;9.558;2023-11-19T08:49:15;21.70;;;3.40;;
5811;SDS011;2932;52.400;9.558;2023-11-19T08:51:40;22.03;;;3.73;;
5811;SDS011;2932;52.400;9.558;2023-11-19T08:54:06;20.20;;;3.57;;
5811;SDS011;2932;52.400;9.558;2023-11-19T08:56:32;17.70;;;3.20;;
5811;SDS011;2932;52.400;9.558;2023-11-19T08:58:59;18.93;;;3.23;;
5811;SDS011;2932;52.400;9.558;2023-11-19T09:01:25;16.20;;;3.63;;
5811;SDS011;2932;52.400;9.558;2023-11-19T09:03:50;21.33;;;3.80;;
5811;SDS011;2932;52.400;9.558;2023-11-19T09:06:15;16.20;;;3.70;;
5811;SDS011;2932;52.400;9.558;2023-11-19T09:08:42;25.20;;;4.43;;
5811;SDS011;2932;52.400;9.558;2023-11-19T09:11:07;19.47;;;3.40;;
5811;SDS011;2932;52.400;9.558;2023-11-19T09:13:34;19.47;;;3.90;;
5811;SDS011;2932;52.400;9.558;2023-11-19T09:15:59;17.93;;;3.83;;
5811;SDS011;2932;52.400;9.558;2023-11-19T09:18:28;22.47;;;4.33;;
5811;SDS011;2932;52.400;9.558;2023-11-19T09:20:54;17.33;;;3.57;;
5811;SDS011;2932;52.400;9.558;2023-11-19T09:23:19;18.83;;;3.53;;
5811;SDS011;2932;52.400;9.558;2023-11-19T09:25:44;15.20;;;3.07;;
5811;SDS011;2932;52.400;9.558;2023-11-19T09:28:10;21.43;;;3.80;;
5811;SDS011;2932;52.400;9.558;2023-11-19T09:30:35;21.53;;;4.33;;
5811;SDS011;2932;52.400;9.558;2023-11-19T09:33:00;18.87;;;3.50;;
5811;SDS011;2932;52.400;9.558;2023-11-19T09:35:26;17.27;;;4.07;;
5811;SDS011;2932;52.400;9.558;2023-11-19T09:37:51;14.70;;;3.07;;
5811;SDS011;2932;52.400;9.558;2023-11-19T09:40:16;16.83;;;3.43;;
5811;SDS011;2932;52.400;9.558;2023-11-19T09:42:43;21.83;;;4.30;;
5811;SDS011;2932;52.400;9.558;2023-11-19T09:45:12;20.20;;;4.30;;
5811;SDS011;2932;52.400;9.558;2023-11-19T09:47:44;18.83;;;3.47;;
5811;SDS011;2932;52.400;9.558;2023-11-19T09:50:17;20.17;;;3.90;;
5811;SDS011;2932;52.400;9.558;2023-11-19T09:52:45;23.90;;;4.13;;
5811;SDS011;2932;52.400;9.558;2023-11-19T09:55:11;18.60;;;3.13;;
5811;SDS011;2932;52.400;9.558;2023-11-19T09:57:38;22.20;;;3.73;;
5811;SDS011;2932;52.400;9.558;2023-11-19T10:00:05;17.80;;;3.40;;
5811;SDS011;2932;52.400;9.558;2023-11-19T10:02:33;21.30;;;3.70;;
5811;SDS011;2932;52.400;9.558;2023-11-19T10:05:08;18.33;;;3.37;;
5811;SDS011;2932;52.400;9.558;2023-11-19T10:07:35;23.43;;;4.03;;
5811;SDS011;2932;52.400;9.558;2023-11-19T10:10:00;18.20;;;3.37;;
5811;SDS011;2932;52.400;9.558;2023-11-19T10:12:27;18.90;;;3.20;;
5811;SDS011;2932;52.400;9.558;2023-11-19T10:14:54;20.57;;;4.27;;
5811;SDS011;2932;52.400;9.558;2023-11-19T10:17:27;27.30;;;4.13;;
5811;SDS011;2932;52.400;9.558;2023-11-19T10:19:54;23.73;;;3.27;;
5811;SDS011;2932;52.400;9.558;2023-11-19T10:22:19;22.20;;;3.93;;
5811;SDS011;2932;52.400;9.558;2023-11-19T10:24:45;21.40;;;4.60;;
5811;SDS011;2932;52.400;9.558;2023-11-19T10:27:19;18.67;;;4.07;;
5811;SDS011;2932;52.400;9.558;2023-11-19T10:29:51;18.97;;;3.87;;
5811;SDS011;2932;52.400;9.558;2023-11-19T10:32:16;22.80;;;3.73;;
5811;SDS011;2932;52.400;9.558;2023-11-19T10:34:51;16.70;;;3.47;;
5811;SDS011;2932;52.400;9.558;2023-11-19T10:37:35;13.07;;;3.10;;
5811;SDS011;2932;52.400;9.558;2023-11-19T10:40:02;19.20;;;3.77;;
5811;SDS011;2932;52.400;9.558;2023-11-19T10:42:30;20.57;;;3.97;;
5811;SDS011;2932;52.400;9.558;2023-11-19T10:44:55;19.67;;;4.03;;
5811;SDS011;2932;52.400;9.558;2023-11-19T10:47:23;19.27;;;3.67;;
5811;SDS011;2932;52.400;9.558;2023-11-19T10:49:59;19.80;;;3.90;;
5811;SDS011;2932;52.400;9.558;2023-11-19T10:52:25;17.27;;;3.87;;
5811;SDS011;2932;52.400;9.558;2023-11-19T10:54:52;17.83;;;3.53;;
5811;SDS011;2932;52.400;9.558;2023-11-19T10:57:23;18.27;;;3.57;;
5811;SDS011;2932;52.400;9.558;2023-11-19T10:59:55;18.43;;;4.23;;
5811;SDS011;2932;52.400;9.558;2023-11-19T11:02:27;13.90;;;3.37;;
5811;SDS011;2932;52.400;9.558;2023-11-19T11:04:54;19.40;;;3.60;;
5811;SDS011;2932;52.400;9.558;2023-11-19T11:07:21;17.87;;;4.07;;
5811;SDS011;2932;52.400;9.558;2023-11-19T11:09:48;18.53;;;3.77;;
5811;SDS011;2932;52.400;9.558;2023-11-19T11:12:14;14.10;;;3.13;;
5811;SDS011;2932;52.400;9.558;2023-11-19T11:14:42;21.13;;;3.80;;
5811;SDS011;2932;52.400;9.558;2023-11-19T11:17:09;18.33;;;3.97;;
5811;SDS011;2932;52.400;9.558;2023-11-19T11:19:37;18.63;;;4.07;;
5811;SDS011;2932;52.400;9.558;2023-11-19T11:22:03;20.47;;;4.47;;
5811;SDS011;2932;52.400;9.558;2023-11-19T11:30:29;16.37;;;4.07;;
5811;SDS011;2932;52.400;9.558;2023-11-19T11:36:13;11.40;;;3.88;;
5811;SDS011;2932;52.400;9.558;2023-11-19T11:38:45;18.58;;;3.60;;
5811;SDS011;2932;52.400;9.558;2023-11-19T11:49:01;23.53;;;4.50;;
5811;SDS011;2932;52.400;9.558;2023-11-19T11:54:08;17.83;;;3.60;;
5811;SDS011;2932;52.400;9.558;2023-11-19T11:56:38;22.93;;;4.03;;
5811;SDS011;2932;52.400;9.558;2023-11-19T11:59:19;19.47;;;3.50;;
5811;SDS011;2932;52.400;9.558;2023-11-19T12:01:59;17.03;;;4.03;;
5811;SDS011;2932;52.400;9.558;2023-11-19T12:04:26;19.27;;;3.73;;
5811;SDS011;2932;52.400;9.558;2023-11-19T12:09:39;21.47;;;3.93;;
5811;SDS011;2932;52.400;9.558;2023-11-19T12:12:21;20.40;;;3.93;;
5811;SDS011;2932;52.400;9.558;2023-11-19T12:19:59;18.37;;;3.73;;
5811;SDS011;2932;52.400;9.558;2023-11-19T12:22:26;18.07;;;3.07;;
5811;SDS011;2932;52.400;9.558;2023-11-19T12:24:52;19.70;;;4.17;;
5811;SDS011;2932;52.400;9.558;2023-11-19T12:27:19;18.30;;;3.03;;
5811;SDS011;2932;52.400;9.558;2023-11-19T12:29:47;18.43;;;3.80;;
5811;SDS011;2932;52.400;9.558;2023-11-19T12:32:12;25.40;;;3.97;;
5811;SDS011;2932;52.400;9.558;2023-11-19T12:34:38;15.67;;;3.13;;
5811;SDS011;2932;52.400;9.558;2023-11-19T12:37:04;20.63;;;4.67;;
5811;SDS011;2932;52.400;9.558;2023-11-19T12:39:30;13.23;;;3.03;;
5811;SDS011;2932;52.400;9.558;2023-11-19T12:41:56;22.20;;;4.70;;
5811;SDS011;2932;52.400;9.558;2023-11-19T12:44:24;19.33;;;3.60;;
5811;SDS011;2932;52.400;9.558;2023-11-19T12:46:59;22.70;;;3.87;;
5811;SDS011;2932;52.400;9.558;2023-11-19T12:49:26;19.07;;;3.03;;
5811;SDS011;2932;52.400;9.558;2023-11-19T12:51:51;18.80;;;3.83;;
5811;SDS011;2932;52.400;9.558;2023-11-19T12:54:16;16.20;;;3.03;;
5811;SDS011;2932;52.400;9.558;2023-11-19T12:56:52;17.33;;;3.13;;
5811;SDS011;2932;52.400;9.558;2023-11-19T12:59:18;21.67;;;4.87;;
5811;SDS011;2932;52.400;9.558;2023-11-19T13:01:56;16.27;;;3.43;;
5811;SDS011;2932;52.400;9.558;2023-11-19T13:04:22;18.50;;;3.60;;
5811;SDS011;2932;52.400;9.558;2023-11-19T13:06:49;16.00;;;2.90;;
5811;SDS011;2932;52.400;9.558;2023-11-19T13:09:24;21.60;;;3.17;;
5811;SDS011;2932;52.400;9.558;2023-11-19T13:11:53;15.57;;;3.40;;
5811;SDS011;2932;52.400;9.558;2023-11-19T13:14:20;14.20;;;2.97;;
5811;SDS011;2932;52.400;9.558;2023-11-19T13:16:46;20.40;;;3.93;;
5811;SDS011;2932;52.400;9.558;2023-11-19T13:19:12;18.27;;;3.60;;
5811;SDS011;2932;52.400;9.558;2023-11-19T13:21:38;19.17;;;3.87;;
5811;SDS011;2932;52.400;9.558;2023-11-19T13:24:05;20.63;;;4.10;;
5811;SDS011;2932;52.400;9.558;2023-11-19T13:26:33;16.80;;;3.43;;
5811;SDS011;2932;52.400;9.558;2023-11-19T13:28:59;20.50;;;3.63;;
5811;SDS011;2932;52.400;9.558;2023-11-19T13:31:25;23.07;;;3.87;;
5811;SDS011;2932;52.400;9.558;2023-11-19T13:33:51;19.10;;;3.33;;
5811;SDS011;2932;52.400;9.558;2023-11-19T13:36:16;17.93;;;3.50;;
5811;SDS011;2932;52.400;9.558;2023-11-19T13:38:41;21.30;;;3.97;;
5811;SDS011;2932;52.400;9.558;2023-11-19T13:41:09;21.10;;;3.40;;
5811;SDS011;2932;52.400;9.558;2023-11-19T13:43:35;17.50;;;3.00;;
5811;SDS011;2932;52.400;9.558;2023-11-19T13:46:01;21.37;;;3.60;;
5811;SDS011;2932;52.400;9.558;2023-11-19T13:48:27;21.33;;;4.13;;
5811;SDS011;2932;52.400;9.558;2023-11-19T13:50:54;18.57;;;3.73;;
5811;SDS011;2932;52.400;9.558;2023-11-19T13:53:19;20.97;;;4.23;;
5811;SDS011;2932;52.400;9.558;2023-11-19T13:55:45;17.83;;;3.77;;
5811;SDS011;2932;52.400;9.558;2023-11-19T13:58:11;17.90;;;3.67;;
5811;SDS011;2932;52.400;9.558;2023-11-19T14:00:36;17.20;;;4.00;;
5811;SDS011;2932;52.400;9.558;2023-11-19T14:03:02;14.23;;;3.23;;
5811;SDS011;2932;52.400;9.558;2023-11-19T14:05:27;22.23;;;3.60;;
5811;SDS011;2932;52.400;9.558;2023-11-19T14:07:53;20.53;;;3.67;;
5811;SDS011;2932;52.400;9.558;2023-11-19T14:10:19;18.43;;;3.63;;
5811;SDS011;2932;52.400;9.558;2023-11-19T14:12:45;14.47;;;3.20;;
5811;SDS011;2932;52.400;9.558;2023-11-19T14:15:10;15.30;;;2.97;;
5811;SDS011;2932;52.400;9.558;2023-11-19T14:17:39;19.67;;;3.73;;
5811;SDS011;2932;52.400;9.558;2023-11-19T14:20:05;14.67;;;3.20;;
5811;SDS011;2932;52.400;9.558;2023-11-19T14:22:38;23.50;;;3.90;;
5811;SDS011;2932;52.400;9.558;2023-11-19T14:25:04;21.40;;;3.47;;
5811;SDS011;2932;52.400;9.558;2023-11-19T14:27:30;20.23;;;3.43;;
5811;SDS011;2932;52.400;9.558;2023-11-19T14:29:55;18.57;;;3.57;;
5811;SDS011;2932;52.400;9.558;2023-11-19T14:32:20;20.53;;;4.43;;
5811;SDS011;2932;52.400;9.558;2023-11-19T14:34:46;18.80;;;3.00;;
5811;SDS011;2932;52.400;9.558;2023-11-19T14:37:11;19.37;;;3.90;;
5811;SDS011;2932;52.400;9.558;2023-11-19T14:39:36;20.53;;;3.40;;
5811;SDS011;2932;52.400;9.558;2023-11-19T14:42:02;16.73;;;3.07;;
5811;SDS011;2932;52.400;9.558;2023-11-19T14:44:29;16.30;;;3.70;;
5811;SDS011;2932;52.400;9.558;2023-11-19T14:46:55;14.73;;;3.03;;
5811;SDS011;2932;52.400;9.558;2023-11-19T14:49:20;15.73;;;3.10;;
5811;SDS011;2932;52.400;9.558;2023-11-19T14:51:45;12.07;;;2.60;;
5811;SDS011;2932;52.400;9.558;2023-11-19T14:54:11;11.77;;;2.93;;
5811;SDS011;2932;52.400;9.558;2023-11-19T14:56:36;12.63;;;2.60;;
5811;SDS011;2932;52.400;9.558;2023-11-19T14:59:03;16.03;;;2.80;;
5811;SDS011;2932;52.400;9.558;2023-11-19T15:01:29;16.27;;;2.53;;
5811;SDS011;2932;52.400;9.558;2023-11-19T15:03:55;17.77;;;3.07;;
5811;SDS011;2932;52.400;9.558;2023-11-19T15:06:24;17.33;;;3.13;;
5811;SDS011;2932;52.400;9.558;2023-11-19T15:08:51;15.47;;;2.53;;
5811;SDS011;2932;52.400;9.558;2023-11-19T15:11:17;18.90;;;3.10;;
5811;SDS011;2932;52.400;9.558;2023-11-19T15:13:42;19.83;;;3.33;;
5811;SDS011;2932;52.400;9.558;2023-11-19T15:16:07;17.93;;;4.60;;
5811;SDS011;2932;52.400;9.558;2023-11-19T15:18:36;20.97;;;4.30;;
5811;SDS011;2932;52.400;9.558;2023-11-19T15:21:03;19.53;;;3.73;;
5811;SDS011;2932;52.400;9.558;2023-11-19T15:23:28;22.17;;;4.50;;
5811;SDS011;2932;52.400;9.558;2023-11-19T15:25:54;14.70;;;3.47;;
5811;SDS011;2932;52.400;9.558;2023-11-19T15:28:20;17.73;;;3.83;;
5811;SDS011;2932;52.400;9.558;2023-11-19T15:30:46;19.17;;;3.40;;
5811;SDS011;2932;52.400;9.558;2023-11-19T15:33:12;15.17;;;3.03;;